Time;durP1;ratioP1;P1;durP2;ratioP2;P2;SDS_P1;SDS_P2;PMS_P1;PMS_P2;Temp;Humidity;BMP_temperature;BMP_pressure;BME280_temperature;BME280_humidity;BME280_pressure;Samples;Min_cycle;Max_cycle;Signal;HPM_P1;HPM_P2
2022/01/26 00:07:17;;;;;;;;;82.33;64.67;;;;;2.87;44.78;100583.25;5008585;28;9033;-76
2022/01/26 00:09:46;;;;;;;;;75.00;60.00;;;;;2.90;45.31;100580.81;4991197;28;9271;-75
2022/01/26 00:12:14;;;;;;;;;81.67;63.33;;;;;2.88;44.91;100574.72;5008557;28;9088;-74
2022/01/26 00:14:44;;;;;;;;;81.00;63.25;;;;;2.92;44.47;100576.59;5007442;28;9017;-76
2022/01/26 00:17:13;;;;;;;;;70.50;56.25;;;;;2.90;44.39;100578.22;4941912;28;9697;-74
2022/01/26 00:19:51;;;;;;;;;71.25;52.75;;;;;2.91;44.73;100573.97;5008849;28;8877;-74
2022/01/26 00:22:41;;;;;;;;;65.75;50.00;;;;;2.92;44.69;100570.59;4990234;28;8919;-75
2022/01/26 00:25:24;;;;;;;;;44.75;37.25;;;;;2.90;44.52;100573.09;5006983;28;8917;-78
2022/01/26 00:27:56;;;;;;;;;70.25;56.00;;;;;2.90;44.79;100574.78;4993659;28;8886;-74
2022/01/26 00:38:45;;;;;;;;;64.25;53.75;;;;;2.97;44.44;100576.84;4969704;28;8918;-75
2022/01/26 00:41:18;;;;;;;;;65.25;52.25;;;;;2.88;44.75;100574.72;4970303;28;8907;-75
2022/01/26 00:43:52;;;;;;;;;65.50;49.25;;;;;2.93;44.77;100585.25;4953908;28;8868;-77
2022/01/26 00:46:24;;;;;;;;;59.75;48.50;;;;;2.99;45.18;100582.06;4970121;28;8938;-75
2022/01/26 00:48:54;;;;;;;;;69.25;54.00;;;;;3.01;45.49;100586.47;4986091;28;8884;-74
2022/01/26 00:51:22;;;;;;;;;70.00;58.25;;;;;3.07;45.18;100579.03;4969341;28;8974;-77
2022/01/26 00:53:59;;;;;;;;;72.00;58.25;;;;;3.10;45.49;100575.69;4970203;28;8868;-75
2022/01/26 00:56:29;;;;;;;;;61.50;52.50;;;;;3.11;45.03;100575.78;4954206;28;9658;-72
2022/01/26 00:58:58;;;;;;;;;69.25;57.00;;;;;3.16;45.08;100573.41;4985737;28;8896;-77
2022/01/26 01:01:28;;;;;;;;;68.75;52.50;;;;;3.18;45.51;100574.38;4986124;28;8894;-74
2022/01/26 01:03:57;;;;;;;;;66.25;51.25;;;;;3.18;45.17;100570.91;4985600;28;8910;-73
2022/01/26 01:06:29;;;;;;;;;67.75;55.25;;;;;3.17;45.40;100576.88;4985823;28;8873;-76
2022/01/26 01:08:58;;;;;;;;;60.25;46.25;;;;;3.19;45.71;100568.38;4985525;28;8860;-77
2022/01/26 01:11:27;;;;;;;;;67.50;56.50;;;;;3.18;45.34;100573.50;4936446;28;8920;-75
2022/01/26 01:13:57;;;;;;;;;67.00;52.25;;;;;3.10;45.73;100570.53;4969209;28;8865;-75
2022/01/26 01:16:28;;;;;;;;;61.25;49.75;;;;;3.15;44.96;100571.63;4951486;28;14037;-74
2022/01/26 01:19:04;;;;;;;;;71.00;56.00;;;;;3.16;45.57;100562.22;4990167;28;8862;-76
2022/01/26 01:22:05;;;;;;;;;68.75;54.00;;;;;3.10;45.40;100558.56;5007391;28;8846;-76
2022/01/26 01:24:57;;;;;;;;;65.50;49.50;;;;;3.16;45.57;100565.69;4988749;28;8862;-73
2022/01/26 01:27:56;;;;;;;;;30.50;27.25;;;;;3.19;45.23;100563.22;4990425;28;8866;-75
2022/01/26 01:30:31;;;;;;;;;65.00;52.75;;;;;3.03;45.57;100566.81;4989147;28;9734;-74
2022/01/26 01:33:07;;;;;;;;;68.75;51.75;;;;;3.08;45.77;100565.34;4972940;28;8901;-76
2022/01/26 01:35:40;;;;;;;;;53.25;43.75;;;;;3.16;45.62;100569.94;5022546;28;8962;-75
2022/01/26 01:38:13;;;;;;;;;71.25;52.50;;;;;3.17;45.74;100569.13;5024097;28;8905;-74
2022/01/26 01:40:43;;;;;;;;;67.00;53.75;;;;;3.19;45.82;100559.78;5010225;28;8831;-75
2022/01/26 01:43:13;;;;;;;;;76.50;57.50;;;;;3.17;46.30;100559.72;5031976;28;9000;-78
2022/01/26 01:45:45;;;;;;;;;67.50;54.00;;;;;3.22;45.87;100558.22;5031715;28;8869;-76
2022/01/26 01:48:19;;;;;;;;;62.50;48.50;;;;;3.24;45.98;100563.47;5031785;28;8955;-74
2022/01/26 01:50:51;;;;;;;;;68.75;54.00;;;;;3.24;45.64;100564.34;5015061;28;8948;-73
2022/01/26 01:53:28;;;;;;;;;67.25;57.75;;;;;3.30;45.57;100550.84;5031461;28;8834;-73
2022/01/26 01:55:58;;;;;;;;;69.75;58.00;;;;;3.28;46.26;100553.34;5012136;28;9633;-77
2022/01/26 01:58:28;;;;;;;;;65.50;56.25;;;;;3.01;46.35;100549.53;5011894;28;8871;-74
2022/01/26 02:00:57;;;;;;;;;60.25;46.25;;;;;3.05;46.36;100549.72;4988565;28;8903;-76
2022/01/26 02:03:28;;;;;;;;;67.25;52.75;;;;;3.07;46.09;100544.66;4940437;28;8983;-75
2022/01/26 02:05:57;;;;;;;;;68.25;57.25;;;;;2.80;45.53;100547.72;4956702;28;8880;-75
2022/01/26 02:08:26;;;;;;;;;70.50;53.25;;;;;2.77;46.65;100545.00;4972850;28;8865;-75
2022/01/26 02:10:55;;;;;;;;;70.25;55.25;;;;;2.73;47.09;100543.09;4972569;28;8887;-76
2022/01/26 02:13:28;;;;;;;;;69.25;58.25;;;;;2.82;47.44;100546.09;4987002;28;8864;-75
2022/01/26 02:16:05;;;;;;;;;63.25;51.75;;;;;2.79;47.97;100543.38;4969566;28;8874;-74
2022/01/26 02:18:50;;;;;;;;;65.50;52.00;;;;;2.85;47.57;100542.75;4935483;28;8887;-79
2022/01/26 02:52:11;;;;;;;;;65.25;57.00;;;;;2.25;52.85;100537.34;4892175;29;8857;-76
2022/01/26 02:54:50;;;;;;;;;61.75;47.00;;;;;2.30;53.09;100546.16;4892740;29;8892;-75
2022/01/26 02:57:37;;;;;;;;;66.25;46.25;;;;;2.09;53.91;100536.59;4892009;29;8960;-76
2022/01/26 03:00:25;;;;;;;;;60.50;48.00;;;;;2.31;53.50;100540.22;4876795;29;8853;-74
2022/01/26 03:02:58;;;;;;;;;65.75;55.75;;;;;2.36;54.19;100535.28;4888433;29;8892;-75
2022/01/26 03:05:32;;;;;;;;;60.25;52.25;;;;;2.27;54.08;100533.16;4939881;28;8864;-76
2022/01/26 03:08:04;;;;;;;;;67.25;53.50;;;;;2.37;54.14;100529.34;4924019;28;8845;-73
2022/01/26 03:10:48;;;;;;;;;66.25;53.00;;;;;2.47;53.93;100527.28;4970143;28;8868;-74
2022/01/26 03:13:21;;;;;;;;;60.75;52.00;;;;;2.60;53.67;100526.16;4961223;28;9000;-75
2022/01/26 03:15:54;;;;;;;;;68.00;54.25;;;;;2.63;53.64;100523.75;4987472;28;8877;-76
2022/01/26 03:21:08;;;;;;;;;69.50;54.75;;;;;2.56;53.68;100523.38;4971319;28;8901;-76
2022/01/26 03:29:14;;;;;;;;;64.25;55.00;;;;;2.56;54.05;100520.81;4969958;28;8858;-74
2022/01/26 03:32:33;;;;;;;;;65.25;51.75;;;;;2.60;53.88;100530.44;5024474;28;8884;-75
2022/01/26 03:34:53;;;;;;;;;54.25;45.50;;;;;2.75;53.55;100528.59;4990297;28;8979;-76
2022/01/26 03:37:24;;;;;;;;;72.75;58.25;;;;;2.41;53.59;100529.56;4972365;28;8905;-78
2022/01/26 03:39:53;;;;;;;;;57.75;49.00;;;;;2.43;54.55;100530.50;5005969;28;8978;-77
2022/01/26 03:42:23;;;;;;;;;66.75;55.50;;;;;2.47;54.23;100528.97;4990729;28;8870;-74
2022/01/26 03:44:52;;;;;;;;;62.50;51.50;;;;;2.52;54.46;100524.94;5004913;28;8886;-74
2022/01/26 03:47:21;;;;;;;;;70.25;54.75;;;;;2.66;54.22;100529.03;4972233;28;8873;-75
2022/01/26 03:49:49;;;;;;;;;63.50;47.75;;;;;2.79;53.84;100530.47;5004735;28;8866;-76
2022/01/26 03:52:18;;;;;;;;;58.25;49.75;;;;;2.79;54.10;100527.91;5006510;28;9093;-74
2022/01/26 03:54:47;;;;;;;;;71.00;54.50;;;;;2.91;53.44;100532.75;5008257;28;8890;-75
2022/01/26 03:57:15;;;;;;;;;69.00;53.50;;;;;2.92;53.79;100537.97;5010087;28;8875;-76
2022/01/26 03:59:45;;;;;;;;;55.00;47.25;;;;;2.97;53.35;100521.84;5026206;28;9057;-74
2022/01/26 04:02:14;;;;;;;;;64.00;54.00;;;;;2.99;53.56;100526.25;5008871;28;8836;-77
2022/01/26 04:04:49;;;;;;;;;68.25;54.25;;;;;3.07;53.45;100529.19;5026286;28;8844;-73
2022/01/26 04:07:17;;;;;;;;;63.25;52.25;;;;;3.16;53.34;100532.19;5026171;28;8922;-75
2022/01/26 04:09:46;;;;;;;;;65.50;51.50;;;;;3.04;53.12;100534.19;5009705;28;8895;-74
2022/01/26 04:12:15;;;;;;;;;66.25;48.75;;;;;3.12;53.37;100530.28;5026206;28;8852;-74
2022/01/26 04:14:52;;;;;;;;;63.75;51.00;;;;;3.03;53.58;100533.31;5009328;28;8895;-74
2022/01/26 04:17:20;;;;;;;;;65.75;52.00;;;;;3.11;53.77;100531.97;4995238;28;9636;-74
2022/01/26 04:19:55;;;;;;;;;67.50;53.75;;;;;3.16;53.50;100531.28;5025465;28;8876;-74
2022/01/26 04:22:30;;;;;;;;;45.25;34.75;;;;;2.98;54.09;100539.06;5026083;28;8914;-74
2022/01/26 04:24:59;;;;;;;;;71.00;57.75;;;;;2.98;54.52;100544.22;4976512;28;8884;-75
2022/01/26 04:27:35;;;;;;;;;59.25;48.25;;;;;2.86;54.51;100542.84;4989238;28;8886;-75
2022/01/26 04:30:08;;;;;;;;;56.00;49.50;;;;;3.00;54.68;100532.28;4975084;28;8879;-74
2022/01/26 04:32:37;;;;;;;;;65.75;49.00;;;;;2.76;55.32;100539.75;4918872;28;8843;-74
2022/01/26 04:35:08;;;;;;;;;62.50;49.75;;;;;2.90;54.92;100542.16;4966483;28;8875;-75
2022/01/26 04:37:54;;;;;;;;;52.25;46.00;;;;;2.59;56.04;100542.44;4963525;28;8890;-76
2022/01/26 04:40:23;;;;;;;;;54.00;49.25;;;;;2.27;57.34;100546.91;4958852;28;8868;-74
2022/01/26 04:42:58;;;;;;;;;65.25;47.75;;;;;2.46;56.88;100545.25;4969566;28;9027;-74
2022/01/26 04:45:28;;;;;;;;;60.25;50.00;;;;;2.05;58.53;100546.66;4985481;28;8857;-74
2022/01/26 04:47:57;;;;;;;;;49.00;44.50;;;;;2.32;57.69;100541.97;4985770;28;8829;-73
2022/01/26 04:50:25;;;;;;;;;61.50;49.50;;;;;2.17;58.16;100547.25;4986083;28;8903;-73
2022/01/26 04:52:54;;;;;;;;;61.50;49.25;;;;;2.25;58.32;100545.97;5004515;28;8866;-74
2022/01/26 04:55:23;;;;;;;;;55.50;43.50;;;;;2.36;57.72;100546.47;4989039;28;8850;-74
2022/01/26 04:57:51;;;;;;;;;53.25;46.25;;;;;1.98;58.98;100550.59;4990026;28;8949;-73
2022/01/26 05:00:20;;;;;;;;;72.25;57.00;;;;;2.25;58.42;100547.63;4958142;28;8892;-74
2022/01/26 05:02:50;;;;;;;;;56.75;47.25;;;;;1.97;59.25;100546.28;4949653;28;8866;-79
2022/01/26 05:05:19;;;;;;;;;45.50;43.50;;;;;1.48;61.09;100546.34;4966497;28;8997;-75
2022/01/26 05:07:48;;;;;;;;;52.00;46.50;;;;;1.53;61.33;100550.03;4966448;28;8852;-74
2022/01/26 05:10:17;;;;;;;;;47.75;42.75;;;;;1.71;60.66;100534.69;4934232;28;8892;-75
2022/01/26 05:12:45;;;;;;;;;50.00;45.25;;;;;1.77;60.73;100540.13;4967159;28;8848;-75
2022/01/26 05:15:15;;;;;;;;;44.25;39.25;;;;;1.52;62.08;100544.00;4970079;28;8923;-76
2022/01/26 05:17:44;;;;;;;;;43.00;40.75;;;;;1.85;61.20;100538.84;4970959;28;8888;-75
2022/01/26 05:20:15;;;;;;;;;73.25;53.25;;;;;1.97;61.11;100545.38;4971287;28;8852;-75
2022/01/26 05:22:44;;;;;;;;;59.75;47.25;;;;;2.17;59.99;100539.53;4960172;28;9586;-73
2022/01/26 05:25:14;;;;;;;;;45.50;42.00;;;;;2.33;59.68;100538.63;4946383;28;8852;-71
2022/01/26 05:27:42;;;;;;;;;54.75;48.00;;;;;2.44;59.54;100536.53;4961774;28;8876;-77
2022/01/26 05:30:12;;;;;;;;;69.25;56.25;;;;;2.20;60.40;100543.97;4959559;28;9678;-75
2022/01/26 05:32:40;;;;;;;;;54.50;48.75;;;;;2.18;60.58;100545.59;4980784;28;8849;-76
2022/01/26 05:35:10;;;;;;;;;47.75;43.50;;;;;2.28;60.70;100548.66;4979347;28;8995;-76
2022/01/26 05:37:40;;;;;;;;;43.00;39.75;;;;;2.02;62.02;100546.50;4992564;28;8865;-77
2022/01/26 05:40:11;;;;;;;;;56.50;45.50;;;;;2.01;61.65;100544.75;4990624;28;8904;-74
2022/01/26 05:42:41;;;;;;;;;56.00;47.75;;;;;2.16;61.78;100544.63;4992045;28;9689;-75
2022/01/26 05:45:24;;;;;;;;;38.50;36.25;;;;;2.19;61.86;100543.06;4953644;28;8882;-75
2022/01/26 05:47:53;;;;;;;;;46.50;40.25;;;;;2.27;61.71;100543.44;4968624;28;8982;-74
2022/01/26 05:50:22;;;;;;;;;44.75;39.75;;;;;2.10;62.23;100542.63;4953510;28;8867;-75
2022/01/26 05:52:52;;;;;;;;;44.50;41.50;;;;;2.01;63.16;100545.63;4970620;28;8859;-77
2022/01/26 05:55:21;;;;;;;;;50.50;43.50;;;;;2.07;63.08;100550.19;4972567;28;8867;-74
2022/01/26 05:57:50;;;;;;;;;49.50;44.50;;;;;2.20;62.96;100554.25;4973408;28;9629;-73
2022/01/26 06:00:18;;;;;;;;;47.75;42.00;;;;;1.98;63.83;100557.44;4973372;28;8901;-76
2022/01/26 06:02:47;;;;;;;;;49.00;43.50;;;;;2.17;63.16;100556.66;4972284;28;9033;-73
2022/01/26 06:05:15;;;;;;;;;45.25;43.75;;;;;2.23;63.26;100555.31;4989021;28;9051;-75
2022/01/26 06:07:44;;;;;;;;;46.25;42.75;;;;;2.41;62.49;100555.28;4972612;28;9014;-76
2022/01/26 06:10:14;;;;;;;;;44.00;37.25;;;;;2.44;62.94;100551.97;4959105;28;8891;-78
2022/01/26 06:12:43;;;;;;;;;43.50;38.75;;;;;2.32;63.62;100562.56;4975168;28;8895;-75
2022/01/26 06:15:11;;;;;;;;;47.00;40.75;;;;;2.25;63.88;100560.50;4974802;28;8922;-72
2022/01/26 06:17:40;;;;;;;;;43.50;39.25;;;;;2.36;63.53;100564.47;4975648;28;9676;-73
2022/01/26 06:20:10;;;;;;;;;47.25;44.50;;;;;1.61;66.90;100569.31;4943493;28;8987;-77
2022/01/26 06:22:39;;;;;;;;;51.25;45.25;;;;;1.94;65.72;100570.13;4978700;28;9697;-75
2022/01/26 06:25:08;;;;;;;;;55.50;45.75;;;;;1.63;67.01;100566.84;5022229;28;8868;-74
2022/01/26 06:27:40;;;;;;;;;54.50;45.50;;;;;1.52;67.31;100577.41;5009212;28;8911;-75
2022/01/26 06:30:09;;;;;;;;;47.75;40.75;;;;;1.64;67.04;100573.72;4993245;28;8977;-78
2022/01/26 06:32:39;;;;;;;;;43.00;38.75;;;;;1.31;68.67;100572.03;5026118;28;9639;-75
2022/01/26 06:35:09;;;;;;;;;46.75;43.75;;;;;1.13;69.71;100577.06;4993288;28;8903;-75
2022/01/26 06:37:38;;;;;;;;;60.50;46.25;;;;;0.94;70.80;100574.31;4992163;28;8873;-76
2022/01/26 06:40:09;;;;;;;;;52.75;47.75;;;;;0.86;71.12;100586.72;4975753;28;8978;-77
2022/01/26 06:42:50;;;;;;;;;48.25;41.75;;;;;0.47;73.74;100593.06;4992934;28;8880;-78
2022/01/26 06:45:23;;;;;;;;;52.25;48.00;;;;;0.50;73.64;100590.69;5025299;28;8889;-76
2022/01/26 06:48:11;;;;;;;;;45.25;42.00;;;;;0.28;74.54;100584.31;5025114;28;8862;-75
2022/01/26 06:50:41;;;;;;;;;60.50;48.50;;;;;0.75;73.02;100573.28;5009987;28;8849;-76
2022/01/26 06:53:09;;;;;;;;;54.00;44.50;;;;;0.98;71.89;100578.81;4991979;28;8850;-75
2022/01/26 06:55:38;;;;;;;;;57.75;46.75;;;;;0.86;72.47;100571.31;4974624;28;8964;-78
2022/01/26 06:58:08;;;;;;;;;47.50;42.25;;;;;1.17;71.61;100578.09;4990756;28;8871;-74
2022/01/26 07:00:37;;;;;;;;;52.50;47.25;;;;;1.49;69.82;100569.56;4988961;28;8848;-74
2022/01/26 07:03:05;;;;;;;;;49.50;42.75;;;;;1.72;68.78;100562.13;4988726;28;8850;-75
2022/01/26 07:05:34;;;;;;;;;53.50;47.00;;;;;1.92;68.26;100569.19;4990567;28;8870;-74
2022/01/26 07:08:03;;;;;;;;;49.50;44.00;;;;;2.17;67.27;100567.84;4957490;28;8916;-76
2022/01/26 07:10:38;;;;;;;;;62.00;49.25;;;;;1.86;68.06;100578.28;4990745;28;9044;-76
2022/01/26 07:13:08;;;;;;;;;49.00;44.50;;;;;1.77;68.11;100573.53;5006783;28;8863;-73
2022/01/26 07:21:27;;;;;;;;;42.50;35.50;;;;;2.33;66.46;100575.53;4987623;28;8855;-78
2022/01/26 07:23:57;;;;;;;;;44.00;39.50;;;;;2.52;65.79;100569.56;4990440;28;8892;-75
2022/01/26 07:26:28;;;;;;;;;55.50;46.75;;;;;2.21;67.15;100572.34;4991348;28;9034;-75
2022/01/26 07:29:02;;;;;;;;;50.25;45.00;;;;;2.54;65.94;100569.66;5023723;28;8864;-75
2022/01/26 07:31:33;;;;;;;;;52.00;45.00;;;;;2.59;65.71;100585.31;5007706;28;8885;-72
2022/01/26 07:34:01;;;;;;;;;60.25;51.25;;;;;2.43;66.33;100573.41;4989877;28;8873;-72
2022/01/26 07:36:30;;;;;;;;;49.25;44.25;;;;;2.25;67.29;100569.13;5024882;28;8860;-71
2022/01/26 07:39:06;;;;;;;;;70.25;50.00;;;;;1.99;67.98;100578.09;5009290;28;8922;-74
2022/01/26 07:41:35;;;;;;;;;45.75;42.75;;;;;2.02;68.05;100575.66;4995266;28;8864;-73
2022/01/26 07:44:06;;;;;;;;;53.75;47.25;;;;;2.09;67.71;100571.72;5020874;28;8856;-71
2022/01/26 07:46:35;;;;;;;;;56.50;47.50;;;;;1.90;68.73;100572.50;4995372;28;8999;-73
2022/01/26 07:49:04;;;;;;;;;45.50;42.75;;;;;1.90;69.02;100581.09;5009113;28;8847;-72
2022/01/26 07:51:33;;;;;;;;;57.50;48.25;;;;;1.48;71.24;100577.19;5024265;28;8868;-72
2022/01/26 07:54:01;;;;;;;;;50.50;46.25;;;;;1.15;72.81;100593.47;5008462;28;9046;-73
2022/01/26 07:56:30;;;;;;;;;63.25;52.00;;;;;0.97;74.05;100585.63;5008847;28;8840;-71
2022/01/26 07:58:58;;;;;;;;;63.50;50.50;;;;;0.71;75.30;100586.75;5024897;28;8856;-74
2022/01/26 08:01:30;;;;;;;;;57.00;47.75;;;;;1.22;73.81;100581.81;5008515;28;8848;-76
2022/01/26 08:03:59;;;;;;;;;44.50;38.50;;;;;1.65;71.65;100578.94;5008398;28;8866;-76
2022/01/26 08:06:28;;;;;;;;;52.50;45.50;;;;;1.83;70.21;100584.13;5025053;28;8925;-73
2022/01/26 08:08:57;;;;;;;;;61.50;49.75;;;;;1.85;69.88;100589.38;5023590;28;8866;-71
2022/01/26 08:11:26;;;;;;;;;52.50;44.00;;;;;1.96;69.42;100590.81;5005006;28;8846;-71
2022/01/26 08:13:55;;;;;;;;;62.75;50.75;;;;;1.88;70.05;100592.97;5008240;28;8882;-74
2022/01/26 08:16:23;;;;;;;;;60.00;50.25;;;;;2.15;69.03;100590.03;5007132;28;8870;-72
2022/01/26 08:18:54;;;;;;;;;62.75;51.75;;;;;1.72;70.86;100596.47;5022486;28;8967;-73
2022/01/26 08:21:22;;;;;;;;;66.00;52.50;;;;;2.02;69.77;100596.25;5006398;28;8873;-74
2022/01/26 08:23:51;;;;;;;;;66.25;55.25;;;;;2.14;69.07;100586.59;4994959;28;8866;-74
2022/01/26 08:26:34;;;;;;;;;60.00;49.00;;;;;2.23;68.63;100590.41;5006888;28;8928;-73
2022/01/26 08:29:02;;;;;;;;;49.25;45.50;;;;;2.58;67.92;100596.44;5006794;28;8901;-71
2022/01/26 08:31:31;;;;;;;;;56.75;49.25;;;;;2.76;66.87;100583.53;4973678;28;8908;-74
2022/01/26 08:34:01;;;;;;;;;66.75;47.75;;;;;2.42;67.45;100592.22;5004737;28;8877;-73
2022/01/26 08:36:30;;;;;;;;;56.00;50.50;;;;;2.43;67.72;100592.28;5008096;28;8874;-75
2022/01/26 08:38:59;;;;;;;;;59.25;48.75;;;;;2.61;67.31;100594.00;5002238;28;8870;-75
2022/01/26 08:41:28;;;;;;;;;52.00;45.75;;;;;2.89;66.32;100586.78;5006114;28;8882;-77
2022/01/26 08:43:57;;;;;;;;;66.25;51.50;;;;;2.27;67.93;100598.38;5020271;28;8853;-74
2022/01/26 08:46:26;;;;;;;;;64.75;48.50;;;;;2.33;67.91;100603.81;5005599;28;8866;-72
2022/01/26 08:48:54;;;;;;;;;58.50;51.00;;;;;2.56;67.16;100601.50;5001956;28;8872;-71
2022/01/26 08:51:24;;;;;;;;;22.25;8.00;;;;;2.54;66.96;100608.28;5005369;28;8870;-72
2022/01/26 08:53:53;;;;;;;;;63.00;48.00;;;;;2.49;67.49;100608.03;5006122;28;8877;-72
2022/01/26 08:56:22;;;;;;;;;58.25;48.75;;;;;2.83;66.47;100603.63;5007207;28;8881;-73
2022/01/26 08:58:50;;;;;;;;;57.25;47.50;;;;;2.71;66.81;100601.38;5006309;28;8975;-75
2022/01/26 09:01:19;;;;;;;;;58.50;48.75;;;;;3.05;65.59;100605.53;5006835;28;8898;-72
2022/01/26 09:03:48;;;;;;;;;57.00;47.75;;;;;2.98;65.32;100606.94;5021050;28;8858;-72
2022/01/26 09:06:17;;;;;;;;;48.50;44.25;;;;;3.20;64.94;100603.66;5006004;28;9631;-71
2022/01/26 09:08:53;;;;;;;;;50.50;44.75;;;;;3.20;64.58;100605.38;5004660;28;8838;-71
2022/01/26 09:11:22;;;;;;;;;59.25;50.75;;;;;3.34;63.77;100606.00;5005890;28;8900;-73
2022/01/26 09:13:58;;;;;;;;;59.50;48.00;;;;;3.44;63.93;100601.34;5004720;28;8870;-76
2022/01/26 09:16:29;;;;;;;;;64.75;49.75;;;;;3.41;63.27;100597.72;5005755;28;8884;-71
2022/01/26 09:19:05;;;;;;;;;55.75;45.75;;;;;3.39;63.63;100602.81;5003868;28;8870;-75
2022/01/26 09:21:34;;;;;;;;;53.50;42.25;;;;;3.17;63.69;100603.50;5006302;28;8951;-73
2022/01/26 09:24:05;;;;;;;;;37.25;33.50;;;;;3.16;64.56;100603.44;5004288;28;8874;-74
2022/01/26 09:26:34;;;;;;;;;48.00;45.00;;;;;3.45;63.65;100599.63;5004187;28;8842;-75
2022/01/26 09:29:03;;;;;;;;;47.50;45.00;;;;;3.25;64.02;100604.78;5004439;28;8882;-74
2022/01/26 09:31:32;;;;;;;;;67.25;54.25;;;;;2.96;64.38;100603.41;5005937;28;8860;-73
2022/01/26 09:34:01;;;;;;;;;50.00;38.75;;;;;2.52;66.32;100609.88;5004062;28;8880;-72
2022/01/26 09:36:30;;;;;;;;;58.25;48.00;;;;;2.67;65.82;100597.75;5002861;28;8892;-74
2022/01/26 09:38:59;;;;;;;;;46.50;42.25;;;;;2.83;65.54;100598.47;5005315;28;8964;-71
2022/01/26 09:41:30;;;;;;;;;55.00;45.50;;;;;2.81;65.66;100597.53;4961798;28;9673;-72
2022/01/26 09:44:02;;;;;;;;;51.75;45.75;;;;;3.03;64.83;100594.28;5003930;28;8866;-74
2022/01/26 09:46:32;;;;;;;;;52.25;46.75;;;;;3.13;64.57;100591.31;5005488;28;8953;-72
2022/01/26 09:49:01;;;;;;;;;67.50;55.00;;;;;3.32;63.70;100595.59;5004276;28;8892;-73
2022/01/26 09:51:32;;;;;;;;;59.25;47.75;;;;;3.46;63.91;100596.22;5005143;28;8851;-74
2022/01/26 09:54:03;;;;;;;;;64.75;49.00;;;;;3.72;63.60;100594.81;5020924;28;8862;-72
2022/01/26 09:56:33;;;;;;;;;48.50;42.00;;;;;3.95;62.69;100584.59;5022103;28;9651;-75
2022/01/26 09:59:02;;;;;;;;;53.00;46.75;;;;;3.64;62.41;100585.88;4973914;28;8928;-73
2022/01/26 10:01:40;;;;;;;;;62.50;49.75;;;;;3.48;62.79;100586.88;5022634;28;9062;-74
2022/01/26 10:04:23;;;;;;;;;53.00;48.00;;;;;2.97;64.11;100591.41;4997852;28;9710;-71
2022/01/26 10:07:08;;;;;;;;;63.75;53.00;;;;;3.39;63.81;100587.34;5009287;28;9655;-73
2022/01/26 10:15:31;;;;;;;;;62.25;49.00;;;;;3.77;61.06;100579.56;4952576;28;8871;-73
2022/01/26 10:18:08;;;;;;;;;65.75;51.25;;;;;3.74;61.75;100579.41;4952064;28;8953;-74
2022/01/26 10:20:45;;;;;;;;;64.25;51.75;;;;;3.58;61.75;100573.56;4890995;28;8870;-73
2022/01/26 10:23:17;;;;;;;;;62.75;47.25;;;;;3.53;61.87;100569.91;4967880;28;8997;-74
2022/01/26 10:25:59;;;;;;;;;57.00;44.75;;;;;3.44;62.86;100575.56;4952586;28;8875;-73
2022/01/26 10:28:41;;;;;;;;;54.25;46.75;;;;;3.63;62.33;100566.94;4967648;28;8878;-74
2022/01/26 10:31:15;;;;;;;;;61.00;47.00;;;;;3.59;61.92;100572.78;4947623;28;8869;-72
2022/01/26 10:34:06;;;;;;;;;59.50;48.00;;;;;3.47;62.14;100577.38;4940024;28;8929;-75
2022/01/26 10:36:37;;;;;;;;;51.25;44.25;;;;;3.63;62.55;100573.75;4967669;28;8862;-72
2022/01/26 10:39:08;;;;;;;;;55.75;44.75;;;;;3.90;62.20;100567.22;4968118;28;8855;-71
2022/01/26 10:41:38;;;;;;;;;66.50;51.00;;;;;4.08;61.26;100561.97;4967897;28;9632;-74
2022/01/26 10:44:08;;;;;;;;;59.00;48.75;;;;;4.30;60.86;100549.94;4939004;28;8843;-74
2022/01/26 10:46:40;;;;;;;;;59.50;47.50;;;;;4.23;59.86;100555.69;4954729;28;8864;-73
2022/01/26 10:49:17;;;;;;;;;60.25;49.75;;;;;4.25;60.23;100548.88;4979329;28;8900;-74
2022/01/26 10:52:01;;;;;;;;;59.25;48.75;;;;;4.16;60.83;100549.41;5009924;28;9683;-74
2022/01/26 10:54:39;;;;;;;;;62.75;47.75;;;;;4.24;60.79;100550.59;5009509;28;8894;-74
2022/01/26 10:57:10;;;;;;;;;59.00;48.00;;;;;4.10;61.28;100549.13;5009351;28;8846;-73
2022/01/26 10:59:42;;;;;;;;;70.50;53.50;;;;;4.19;61.39;100546.03;5008770;28;9639;-73
2022/01/26 11:02:13;;;;;;;;;59.75;48.75;;;;;4.04;61.47;100539.41;5009157;28;8870;-71
2022/01/26 11:04:43;;;;;;;;;56.25;48.75;;;;;4.13;61.69;100541.50;5009752;28;8882;-71
2022/01/26 11:07:13;;;;;;;;;63.75;51.25;;;;;4.18;61.44;100542.59;5009433;28;8830;-73
2022/01/26 11:09:45;;;;;;;;;56.50;46.50;;;;;4.43;61.34;100541.88;5009402;28;8865;-74
2022/01/26 11:12:16;;;;;;;;;64.50;47.50;;;;;4.21;61.51;100534.09;5008084;28;8976;-73
2022/01/26 11:14:52;;;;;;;;;53.50;44.50;;;;;4.22;61.77;100531.56;5007752;28;8885;-76
2022/01/26 11:17:27;;;;;;;;;70.00;53.75;;;;;4.24;61.31;100531.63;5007557;28;8876;-72
2022/01/26 11:19:57;;;;;;;;;58.50;47.00;;;;;4.19;61.65;100533.16;5008753;28;9655;-75
2022/01/26 11:22:28;;;;;;;;;61.00;49.50;;;;;4.01;62.35;100534.16;5005885;28;8874;-73
2022/01/26 11:25:09;;;;;;;;;54.00;48.00;;;;;4.19;62.24;100534.00;5007004;28;8877;-73
2022/01/26 11:27:40;;;;;;;;;61.50;48.75;;;;;4.21;62.11;100534.09;5007568;28;8878;-73
2022/01/26 11:30:20;;;;;;;;;62.50;50.75;;;;;4.35;61.87;100527.78;5007225;28;9016;-75
2022/01/26 11:32:52;;;;;;;;;64.75;50.00;;;;;4.37;61.41;100520.13;5005751;28;8888;-74
2022/01/26 11:35:28;;;;;;;;;64.50;53.00;;;;;4.39;61.70;100518.47;5005041;28;10806;-74
2022/01/26 11:38:11;;;;;;;;;61.50;52.00;;;;;4.64;60.66;100520.31;5005430;28;9954;-72
2022/01/26 11:46:31;;;;;;;;;57.25;51.00;;;;;4.69;61.59;100514.50;5005507;28;8858;-73
2022/01/26 11:49:01;;;;;;;;;57.25;46.50;;;;;4.69;61.23;100511.06;5005713;28;9793;-72
2022/01/26 11:51:44;;;;;;;;;60.25;50.25;;;;;4.90;60.63;100510.97;5005347;28;9033;-74
2022/01/26 11:54:15;;;;;;;;;62.25;52.25;;;;;4.73;60.56;100514.63;5005520;28;8987;-75
2022/01/26 11:56:56;;;;;;;;;64.25;52.00;;;;;4.62;61.24;100512.50;5005134;28;8959;-71
2022/01/26 11:59:27;;;;;;;;;69.25;55.00;;;;;4.23;62.25;100509.22;5005333;28;8854;-75
2022/01/26 12:02:01;;;;;;;;;59.50;49.00;;;;;4.25;62.75;100513.63;5005040;28;8855;-74
2022/01/26 12:04:37;;;;;;;;;70.50;56.00;;;;;4.02;63.65;100511.78;5005127;28;8981;-72
2022/01/26 12:07:18;;;;;;;;;63.50;53.00;;;;;3.81;64.49;100509.22;5005436;28;8953;-72
2022/01/26 12:09:47;;;;;;;;;70.25;51.50;;;;;3.82;64.87;100513.53;5002201;28;8978;-75
2022/01/26 12:12:18;;;;;;;;;64.25;51.75;;;;;3.10;67.57;100514.75;4988515;28;8846;-74
2022/01/26 12:14:59;;;;;;;;;56.50;48.00;;;;;3.58;66.79;100508.22;4987001;28;8878;-74
2022/01/26 12:17:34;;;;;;;;;56.25;48.25;;;;;3.16;67.94;100514.16;5004996;28;8876;-72
2022/01/26 12:32:03;;;;;;;;;61.75;51.25;;;;;2.89;68.86;100512.09;4988814;28;8854;-74
2022/01/26 12:34:40;;;;;;;;;38.25;31.00;;;;;3.23;69.21;100497.25;5005608;28;9068;-73
2022/01/26 12:37:14;;;;;;;;;69.75;52.50;;;;;3.27;68.19;100497.47;5005584;28;8882;-75
2022/01/26 12:45:57;;;;;;;;;60.75;51.75;;;;;3.60;67.44;100494.56;4934079;28;8973;-76
2022/01/26 12:48:25;;;;;;;;;61.25;50.00;;;;;3.60;66.81;100496.28;4962250;28;8897;-73
2022/01/26 12:50:56;;;;;;;;;53.25;46.25;;;;;3.51;66.53;100492.47;4962798;28;8901;-73
2022/01/26 12:53:26;;;;;;;;;64.75;51.25;;;;;2.82;69.64;100493.72;4948820;28;8966;-75
2022/01/26 12:55:58;;;;;;;;;55.25;47.75;;;;;3.22;68.81;100503.22;4946367;28;8905;-76
2022/01/26 12:58:29;;;;;;;;;56.00;48.75;;;;;3.12;68.77;100495.09;4945635;28;8967;-74
2022/01/26 13:01:03;;;;;;;;;66.00;50.50;;;;;2.95;69.26;100497.69;4931404;28;8854;-76
2022/01/26 13:03:34;;;;;;;;;54.50;46.75;;;;;3.10;68.38;100490.66;4945851;28;8953;-74
2022/01/26 13:06:21;;;;;;;;;58.75;50.00;;;;;2.81;68.79;100489.34;4930510;28;8974;-77
2022/01/26 13:08:52;;;;;;;;;54.00;45.00;;;;;3.02;67.94;100492.00;4946256;28;8854;-76
2022/01/26 13:11:27;;;;;;;;;57.50;49.75;;;;;3.02;67.63;100492.88;4930830;28;8885;-75
2022/01/26 13:14:12;;;;;;;;;56.25;45.50;;;;;3.04;67.12;100488.69;4961492;28;8838;-77
2022/01/26 13:16:45;;;;;;;;;59.00;49.25;;;;;2.93;67.52;100495.09;4959578;28;8996;-74